Time,TemperatureF,DewpointF,PressureIn,WindDirection,WindDirectionDegrees,WindSpeedMPH,WindSpeedGustMPH,Humidity,HourlyPrecipIn,Conditions,Clouds,dailyrainin,SoftwareType,DateUTC
2014-02-16 01:11:00,9.0,6.0,-100.00,North,10,0.0,0.0,89,-99.99,,,-99.99,,2014-02-16 07:11:00,
2014-02-16 01:42:00,9.0,6.0,-100.00,North,10,0.0,0.0,89,-99.99,,,-99.99,,2014-02-16 07:42:00,
2014-02-16 01:52:00,9.0,6.0,-100.00,North,10,0.0,0.0,89,-99.99,,,-99.99,,2014-02-16 07:52:00,
2014-02-16 02:02:00,9.0,6.0,-100.00,North,10,0.0,0.0,89,-99.99,,,-99.99,,2014-02-16 08:02:00,
2014-02-16 02:10:00,6.0,4.0,-100.00,NE,35,0.0,0.0,92,-99.99,,,-99.99,,2014-02-16 08:10:00,
2014-02-16 02:42:00,6.0,4.0,-100.00,NE,35,0.0,0.0,92,-99.99,,,-99.99,,2014-02-16 08:42:00,
2014-02-16 02:52:00,6.0,4.0,-100.00,NE,35,0.0,0.0,92,-99.99,,,-99.99,,2014-02-16 08:52:00,
2014-02-16 03:02:00,6.0,4.0,-100.00,NE,35,0.0,0.0,92,-99.99,,,-99.99,,2014-02-16 09:02:00,
2014-02-16 03:43:00,4.0,2.0,-100.00,NNE,30,0.0,0.0,92,-99.99,,,-99.99,,2014-02-16 09:43:00,
2014-02-16 03:53:00,4.0,2.0,-100.00,NNE,30,0.0,0.0,92,-99.99,,,-99.99,,2014-02-16 09:53:00,
2014-02-16 04:03:00,4.0,2.0,-100.00,NNE,30,0.0,0.0,92,-99.99,,,-99.99,,2014-02-16 10:03:00,
2014-02-16 04:43:00,-1.0,-3.0,-100.00,WSW,250,0.0,0.0,91,-99.99,,,-99.99,,2014-02-16 10:43:00,
2014-02-16 04:53:00,-1.0,-3.0,-100.00,WSW,250,0.0,0.0,91,-99.99,,,-99.99,,2014-02-16 10:53:00,
2014-02-16 05:02:00,-1.0,-3.0,-100.00,WSW,250,0.0,0.0,91,-99.99,,,-99.99,,2014-02-16 11:02:00,
2014-02-16 07:10:00,-10.0,-13.0,-100.00,NE,45,0.0,0.0,89,-99.99,,,-99.99,,2014-02-16 13:10:00,
2014-02-16 07:42:00,-10.0,-13.0,-100.00,NE,45,0.0,0.0,89,-99.99,,,-99.99,,2014-02-16 13:42:00,
2014-02-16 07:52:00,-10.0,-13.0,-100.00,NE,45,0.0,0.0,89,-99.99,,,-99.99,,2014-02-16 13:52:00,
2014-02-16 08:02:00,-10.0,-13.0,-100.00,NE,45,0.0,0.0,89,-99.99,,,-99.99,,2014-02-16 14:02:00,
2014-02-16 08:42:00,-3.0,-5.0,-100.00,East,95,1.0,4.0,89,-99.99,,,-99.99,,2014-02-16 14:42:00,
2014-02-16 08:53:00,-3.0,-5.0,-100.00,East,95,1.0,4.0,89,-99.99,,,-99.99,,2014-02-16 14:53:00,
2014-02-16 09:02:00,-3.0,-5.0,-100.00,East,95,1.0,4.0,89,-99.99,,,-99.99,,2014-02-16 15:02:00,
2014-02-16 09:44:00,7.0,4.0,-100.00,East,80,3.0,7.0,90,-99.99,,,-99.99,,2014-02-16 15:44:00,
2014-02-16 09:54:00,7.0,4.0,-100.00,East,80,3.0,7.0,90,-99.99,,,-99.99,,2014-02-16 15:54:00,
2014-02-16 10:03:00,7.0,4.0,-100.00,East,80,3.0,7.0,90,-99.99,,,-99.99,,2014-02-16 16:03:00,
2014-02-16 10:43:00,8.0,3.0,-100.00,East,85,0.0,0.0,79,-99.99,,,-99.99,,2014-02-16 16:43:00,
2014-02-16 10:53:00,8.0,3.0,-100.00,East,85,0.0,0.0,79,-99.99,,,-99.99,,2014-02-16 16:53:00,
2014-02-16 11:03:00,8.0,3.0,-100.00,East,85,0.0,0.0,79,-99.99,,,-99.99,,2014-02-16 17:03:00,
2014-02-16 12:43:00,14.0,3.0,-100.00,ENE,75,0.0,0.0,62,-99.99,,,-99.99,,2014-02-16 18:43:00,
2014-02-16 12:53:00,14.0,3.0,-100.00,ENE,75,0.0,0.0,62,-99.99,,,-99.99,,2014-02-16 18:53:00,
2014-02-16 13:02:00,14.0,3.0,-100.00,ENE,75,0.0,0.0,62,-99.99,,,-99.99,,2014-02-16 19:02:00,
2014-02-16 13:42:00,15.0,3.0,-100.00,East,85,0.0,12.0,59,-99.99,,,-99.99,,2014-02-16 19:42:00,
2014-02-16 13:52:00,15.0,3.0,-100.00,East,85,0.0,12.0,59,-99.99,,,-99.99,,2014-02-16 19:52:00,
2014-02-16 14:02:00,15.0,3.0,-100.00,East,85,0.0,12.0,59,-99.99,,,-99.99,,2014-02-16 20:02:00,
2014-02-16 14:10:00,18.0,3.0,-100.00,East,85,4.0,8.0,53,-99.99,,,-99.99,,2014-02-16 20:10:00,
2014-02-16 14:43:00,18.0,3.0,-100.00,East,85,4.0,8.0,53,-99.99,,,-99.99,,2014-02-16 20:43:00,
2014-02-16 14:53:00,18.0,3.0,-100.00,East,85,4.0,8.0,53,-99.99,,,-99.99,,2014-02-16 20:53:00,
2014-02-16 15:02:00,18.0,3.0,-100.00,East,85,4.0,8.0,53,-99.99,,,-99.99,,2014-02-16 21:02:00,
2014-02-16 15:43:00,20.0,2.0,-100.00,East,85,7.0,12.0,47,-99.99,,,-99.99,,2014-02-16 21:43:00,
2014-02-16 15:53:00,20.0,2.0,-100.00,East,85,7.0,12.0,47,-99.99,,,-99.99,,2014-02-16 21:53:00,
2014-02-16 16:03:00,20.0,2.0,-100.00,East,85,7.0,12.0,47,-99.99,,,-99.99,,2014-02-16 22:03:00,
2014-02-16 16:43:00,20.0,2.0,-100.00,ESE,120,4.0,9.0,46,-99.99,,,-99.99,,2014-02-16 22:43:00,
2014-02-16 16:53:00,20.0,2.0,-100.00,ESE,120,4.0,9.0,46,-99.99,,,-99.99,,2014-02-16 22:53:00,
2014-02-16 17:02:00,20.0,2.0,-100.00,ESE,120,4.0,9.0,46,-99.99,,,-99.99,,2014-02-16 23:02:00,
2014-02-16 17:10:00,19.0,2.0,-100.00,SE,125,4.0,7.0,48,-99.99,,,-99.99,,2014-02-16 23:10:00,
2014-02-16 17:43:00,19.0,2.0,-100.00,SE,125,4.0,7.0,48,-99.99,,,-99.99,,2014-02-16 23:43:00,
2014-02-16 17:53:00,19.0,2.0,-100.00,SE,125,4.0,7.0,48,-99.99,,,-99.99,,2014-02-16 23:53:00,
2014-02-16 18:02:00,19.0,2.0,-100.00,SE,125,4.0,7.0,48,-99.99,,,-99.99,,2014-02-17 00:02:00,
2014-02-16 18:42:00,17.0,3.0,-100.00,SE,125,3.0,7.0,52,-99.99,,,-99.99,,2014-02-17 00:42:00,
2014-02-16 18:52:00,17.0,3.0,-100.00,SE,125,3.0,7.0,52,-99.99,,,-99.99,,2014-02-17 00:52:00,
2014-02-16 19:01:00,17.0,3.0,-100.00,SE,125,3.0,7.0,52,-99.99,,,-99.99,,2014-02-17 01:01:00,
2014-02-16 20:42:00,17.0,4.0,-100.00,ESE,115,4.0,10.0,56,-99.99,,,-99.99,,2014-02-17 02:42:00,
2014-02-16 20:52:00,17.0,4.0,-100.00,ESE,115,4.0,10.0,56,-99.99,,,-99.99,,2014-02-17 02:52:00,
2014-02-16 21:02:00,17.0,4.0,-100.00,ESE,115,4.0,10.0,56,-99.99,,,-99.99,,2014-02-17 03:02:00,
2014-02-16 21:44:00,19.0,5.0,-100.00,East,90,7.0,14.0,56,-99.99,,,-99.99,,2014-02-17 03:44:00,
2014-02-16 21:54:00,19.0,5.0,-100.00,East,90,7.0,14.0,56,-99.99,,,-99.99,,2014-02-17 03:54:00,
2014-02-16 22:03:00,19.0,5.0,-100.00,East,90,7.0,14.0,56,-99.99,,,-99.99,,2014-02-17 04:03:00,
2014-02-16 22:43:00,19.0,6.0,-100.00,ESE,110,6.0,13.0,55,-99.99,,,-99.99,,2014-02-17 04:43:00,
2014-02-16 22:53:00,19.0,6.0,-100.00,ESE,110,6.0,13.0,55,-99.99,,,-99.99,,2014-02-17 04:53:00,
2014-02-16 23:02:00,19.0,6.0,-100.00,ESE,110,6.0,13.0,55,-99.99,,,-99.99,,2014-02-17 05:02:00,